sensor_id;sensor_type;location;lat;lon;timestamp;P1;durP1;ratioP1;P2;durP2;ratioP2
13083;SDS011;6608;48.790;9.198;2023-07-13T00:00:26;88.83;;;58.10;;
13083;SDS011;6608;48.790;9.198;2023-07-13T00:02:52;92.70;;;58.50;;
13083;SDS011;6608;48.790;9.198;2023-07-13T00:05:19;91.50;;;58.90;;
13083;SDS011;6608;48.790;9.198;2023-07-13T00:07:45;90.60;;;58.27;;
13083;SDS011;6608;48.790;9.198;2023-07-13T00:10:13;91.53;;;58.70;;
13083;SDS011;6608;48.790;9.198;2023-07-13T00:12:40;91.80;;;58.80;;
13083;SDS011;6608;48.790;9.198;2023-07-13T00:15:07;91.63;;;58.90;;
13083;SDS011;6608;48.790;9.198;2023-07-13T00:17:35;95.43;;;58.80;;
13083;SDS011;6608;48.790;9.198;2023-07-13T00:20:03;93.17;;;58.57;;
13083;SDS011;6608;48.790;9.198;2023-07-13T00:22:30;91.83;;;58.83;;
13083;SDS011;6608;48.790;9.198;2023-07-13T00:24:56;92.03;;;59.10;;
13083;SDS011;6608;48.790;9.198;2023-07-13T00:27:23;90.17;;;58.77;;
13083;SDS011;6608;48.790;9.198;2023-07-13T00:29:51;98.97;;;59.07;;
13083;SDS011;6608;48.790;9.198;2023-07-13T00:32:18;89.97;;;58.30;;
13083;SDS011;6608;48.790;9.198;2023-07-13T00:34:46;89.80;;;58.33;;
13083;SDS011;6608;48.790;9.198;2023-07-13T00:37:12;90.07;;;58.30;;
13083;SDS011;6608;48.790;9.198;2023-07-13T00:39:39;95.13;;;60.30;;
13083;SDS011;6608;48.790;9.198;2023-07-13T00:42:05;89.87;;;58.87;;
13083;SDS011;6608;48.790;9.198;2023-07-13T00:44:32;89.47;;;58.33;;
13083;SDS011;6608;48.790;9.198;2023-07-13T00:46:58;90.40;;;57.93;;
13083;SDS011;6608;48.790;9.198;2023-07-13T00:49:25;90.73;;;58.27;;
13083;SDS011;6608;48.790;9.198;2023-07-13T00:51:55;90.83;;;58.43;;
13083;SDS011;6608;48.790;9.198;2023-07-13T00:54:22;93.27;;;58.53;;
13083;SDS011;6608;48.790;9.198;2023-07-13T00:56:52;93.03;;;58.70;;
13083;SDS011;6608;48.790;9.198;2023-07-13T00:59:18;90.60;;;58.70;;
13083;SDS011;6608;48.790;9.198;2023-07-13T01:01:46;90.10;;;58.23;;
13083;SDS011;6608;48.790;9.198;2023-07-13T01:04:13;89.93;;;58.87;;
13083;SDS011;6608;48.790;9.198;2023-07-13T01:06:39;91.50;;;58.37;;
13083;SDS011;6608;48.790;9.198;2023-07-13T01:09:07;91.90;;;58.50;;
13083;SDS011;6608;48.790;9.198;2023-07-13T01:11:35;91.20;;;59.00;;
13083;SDS011;6608;48.790;9.198;2023-07-13T01:14:01;91.20;;;58.60;;
13083;SDS011;6608;48.790;9.198;2023-07-13T01:16:29;89.80;;;58.87;;
13083;SDS011;6608;48.790;9.198;2023-07-13T01:18:56;93.20;;;58.67;;
13083;SDS011;6608;48.790;9.198;2023-07-13T01:21:25;95.33;;;58.23;;
13083;SDS011;6608;48.790;9.198;2023-07-13T01:23:52;93.20;;;59.17;;
13083;SDS011;6608;48.790;9.198;2023-07-13T01:26:19;93.53;;;58.93;;
13083;SDS011;6608;48.790;9.198;2023-07-13T01:28:45;90.63;;;59.50;;
13083;SDS011;6608;48.790;9.198;2023-07-13T01:31:11;89.87;;;57.93;;
13083;SDS011;6608;48.790;9.198;2023-07-13T01:33:39;90.73;;;58.03;;
13083;SDS011;6608;48.790;9.198;2023-07-13T01:36:06;89.83;;;58.43;;
13083;SDS011;6608;48.790;9.198;2023-07-13T01:38:34;92.07;;;59.03;;
13083;SDS011;6608;48.790;9.198;2023-07-13T01:41:01;91.00;;;57.93;;
13083;SDS011;6608;48.790;9.198;2023-07-13T01:43:27;90.27;;;59.03;;
13083;SDS011;6608;48.790;9.198;2023-07-13T01:45:53;92.00;;;57.83;;
13083;SDS011;6608;48.790;9.198;2023-07-13T01:48:20;90.00;;;58.63;;
13083;SDS011;6608;48.790;9.198;2023-07-13T01:50:47;90.27;;;58.07;;
13083;SDS011;6608;48.790;9.198;2023-07-13T01:53:13;96.03;;;58.53;;
13083;SDS011;6608;48.790;9.198;2023-07-13T01:55:41;91.37;;;58.17;;
13083;SDS011;6608;48.790;9.198;2023-07-13T01:58:08;89.10;;;58.03;;
13083;SDS011;6608;48.790;9.198;2023-07-13T02:00:34;90.90;;;58.07;;
13083;SDS011;6608;48.790;9.198;2023-07-13T02:03:01;91.40;;;58.43;;
13083;SDS011;6608;48.790;9.198;2023-07-13T02:05:27;91.07;;;58.27;;
13083;SDS011;6608;48.790;9.198;2023-07-13T02:07:53;92.50;;;58.30;;
13083;SDS011;6608;48.790;9.198;2023-07-13T02:10:20;90.53;;;58.40;;
13083;SDS011;6608;48.790;9.198;2023-07-13T02:12:48;89.10;;;58.03;;
13083;SDS011;6608;48.790;9.198;2023-07-13T02:15:16;89.20;;;58.37;;
13083;SDS011;6608;48.790;9.198;2023-07-13T02:17:42;88.70;;;57.80;;
13083;SDS011;6608;48.790;9.198;2023-07-13T02:20:09;90.10;;;58.40;;
13083;SDS011;6608;48.790;9.198;2023-07-13T02:22:36;91.10;;;57.93;;
13083;SDS011;6608;48.790;9.198;2023-07-13T02:25:02;89.70;;;57.87;;
13083;SDS011;6608;48.790;9.198;2023-07-13T02:27:29;89.23;;;58.30;;
13083;SDS011;6608;48.790;9.198;2023-07-13T02:29:57;88.07;;;58.30;;
13083;SDS011;6608;48.790;9.198;2023-07-13T02:32:23;90.63;;;59.30;;
13083;SDS011;6608;48.790;9.198;2023-07-13T02:34:50;90.47;;;58.30;;
13083;SDS011;6608;48.790;9.198;2023-07-13T02:37:17;88.17;;;58.00;;
13083;SDS011;6608;48.790;9.198;2023-07-13T02:39:44;91.97;;;58.20;;
13083;SDS011;6608;48.790;9.198;2023-07-13T02:42:10;88.57;;;58.23;;
13083;SDS011;6608;48.790;9.198;2023-07-13T02:44:37;91.23;;;58.23;;
13083;SDS011;6608;48.790;9.198;2023-07-13T02:47:05;90.53;;;58.10;;
13083;SDS011;6608;48.790;9.198;2023-07-13T02:49:31;89.30;;;57.83;;
13083;SDS011;6608;48.790;9.198;2023-07-13T02:51:57;89.97;;;58.87;;
13083;SDS011;6608;48.790;9.198;2023-07-13T02:54:24;90.60;;;57.97;;
13083;SDS011;6608;48.790;9.198;2023-07-13T02:56:51;90.97;;;57.87;;
13083;SDS011;6608;48.790;9.198;2023-07-13T02:59:17;91.57;;;59.80;;
13083;SDS011;6608;48.790;9.198;2023-07-13T03:01:43;93.50;;;57.93;;
13083;SDS011;6608;48.790;9.198;2023-07-13T03:04:11;89.87;;;58.97;;
13083;SDS011;6608;48.790;9.198;2023-07-13T03:06:38;92.13;;;58.13;;
13083;SDS011;6608;48.790;9.198;2023-07-13T03:09:04;91.77;;;58.17;;
13083;SDS011;6608;48.790;9.198;2023-07-13T03:11:31;92.53;;;58.23;;
13083;SDS011;6608;48.790;9.198;2023-07-13T03:13:57;90.33;;;58.20;;
13083;SDS011;6608;48.790;9.198;2023-07-13T03:16:24;88.90;;;57.90;;
13083;SDS011;6608;48.790;9.198;2023-07-13T03:18:50;91.23;;;58.40;;
13083;SDS011;6608;48.790;9.198;2023-07-13T03:21:18;93.33;;;58.03;;
13083;SDS011;6608;48.790;9.198;2023-07-13T03:23:44;90.70;;;58.33;;
13083;SDS011;6608;48.790;9.198;2023-07-13T03:26:12;91.90;;;57.77;;
13083;SDS011;6608;48.790;9.198;2023-07-13T03:28:39;89.77;;;57.90;;
13083;SDS011;6608;48.790;9.198;2023-07-13T03:31:07;88.97;;;58.10;;
13083;SDS011;6608;48.790;9.198;2023-07-13T03:33:34;90.23;;;58.13;;
13083;SDS011;6608;48.790;9.198;2023-07-13T03:36:00;90.83;;;58.00;;
13083;SDS011;6608;48.790;9.198;2023-07-13T03:38:28;89.97;;;58.73;;
13083;SDS011;6608;48.790;9.198;2023-07-13T03:40:54;94.87;;;58.13;;
13083;SDS011;6608;48.790;9.198;2023-07-13T03:43:21;90.03;;;58.33;;
13083;SDS011;6608;48.790;9.198;2023-07-13T03:45:47;95.67;;;59.37;;
13083;SDS011;6608;48.790;9.198;2023-07-13T03:48:14;91.77;;;58.10;;
13083;SDS011;6608;48.790;9.198;2023-07-13T03:50:40;89.57;;;58.10;;
13083;SDS011;6608;48.790;9.198;2023-07-13T03:53:07;89.63;;;58.30;;
13083;SDS011;6608;48.790;9.198;2023-07-13T03:55:35;91.77;;;58.13;;
13083;SDS011;6608;48.790;9.198;2023-07-13T04:00:43;99.33;;;58.37;;
13083;SDS011;6608;48.790;9.198;2023-07-13T04:03:09;90.93;;;58.90;;
13083;SDS011;6608;48.790;9.198;2023-07-13T04:05:35;89.83;;;58.13;;
13083;SDS011;6608;48.790;9.198;2023-07-13T04:08:02;94.27;;;58.90;;
13083;SDS011;6608;48.790;9.198;2023-07-13T04:10:28;91.20;;;58.07;;
13083;SDS011;6608;48.790;9.198;2023-07-13T04:12:56;90.00;;;58.10;;
13083;SDS011;6608;48.790;9.198;2023-07-13T04:15:23;92.63;;;58.27;;
13083;SDS011;6608;48.790;9.198;2023-07-13T04:17:49;91.13;;;58.57;;
13083;SDS011;6608;48.790;9.198;2023-07-13T04:20:16;89.53;;;58.23;;
13083;SDS011;6608;48.790;9.198;2023-07-13T04:22:42;89.27;;;57.90;;
13083;SDS011;6608;48.790;9.198;2023-07-13T04:25:09;89.57;;;58.17;;
13083;SDS011;6608;48.790;9.198;2023-07-13T04:27:35;92.53;;;58.77;;
13083;SDS011;6608;48.790;9.198;2023-07-13T04:30:03;91.97;;;58.37;;
13083;SDS011;6608;48.790;9.198;2023-07-13T04:32:30;93.47;;;58.07;;
13083;SDS011;6608;48.790;9.198;2023-07-13T04:34:57;94.37;;;58.53;;
13083;SDS011;6608;48.790;9.198;2023-07-13T04:37:24;88.60;;;58.23;;
13083;SDS011;6608;48.790;9.198;2023-07-13T04:39:50;94.97;;;58.67;;
13083;SDS011;6608;48.790;9.198;2023-07-13T04:42:17;93.23;;;57.90;;
13083;SDS011;6608;48.790;9.198;2023-07-13T04:44:46;90.97;;;59.13;;
13083;SDS011;6608;48.790;9.198;2023-07-13T04:47:14;90.93;;;58.40;;
13083;SDS011;6608;48.790;9.198;2023-07-13T04:49:41;93.50;;;59.37;;
13083;SDS011;6608;48.790;9.198;2023-07-13T04:52:07;93.13;;;58.17;;
13083;SDS011;6608;48.790;9.198;2023-07-13T04:54:34;92.50;;;59.13;;
13083;SDS011;6608;48.790;9.198;2023-07-13T04:57:02;91.07;;;58.00;;
13083;SDS011;6608;48.790;9.198;2023-07-13T04:59:29;91.93;;;58.30;;
13083;SDS011;6608;48.790;9.198;2023-07-13T05:01:56;90.47;;;58.13;;
13083;SDS011;6608;48.790;9.198;2023-07-13T05:04:23;90.73;;;59.10;;
13083;SDS011;6608;48.790;9.198;2023-07-13T05:06:50;90.43;;;58.10;;
13083;SDS011;6608;48.790;9.198;2023-07-13T05:09:16;88.90;;;58.63;;
13083;SDS011;6608;48.790;9.198;2023-07-13T05:11:43;92.63;;;58.60;;
13083;SDS011;6608;48.790;9.198;2023-07-13T05:14:09;92.90;;;59.17;;
13083;SDS011;6608;48.790;9.198;2023-07-13T05:16:36;93.93;;;58.17;;
13083;SDS011;6608;48.790;9.198;2023-07-13T05:19:02;92.53;;;58.37;;
13083;SDS011;6608;48.790;9.198;2023-07-13T05:21:30;94.40;;;59.57;;
13083;SDS011;6608;48.790;9.198;2023-07-13T05:23:57;90.80;;;57.70;;
13083;SDS011;6608;48.790;9.198;2023-07-13T05:26:23;90.03;;;57.80;;
13083;SDS011;6608;48.790;9.198;2023-07-13T05:28:50;91.23;;;58.53;;
13083;SDS011;6608;48.790;9.198;2023-07-13T05:31:16;89.77;;;58.07;;
13083;SDS011;6608;48.790;9.198;2023-07-13T05:33:42;91.07;;;58.67;;
13083;SDS011;6608;48.790;9.198;2023-07-13T05:36:09;94.50;;;59.10;;
13083;SDS011;6608;48.790;9.198;2023-07-13T05:38:37;90.57;;;58.57;;
13083;SDS011;6608;48.790;9.198;2023-07-13T05:41:03;91.00;;;58.50;;
13083;SDS011;6608;48.790;9.198;2023-07-13T05:43:30;95.10;;;59.83;;
13083;SDS011;6608;48.790;9.198;2023-07-13T05:45:56;89.43;;;58.77;;
13083;SDS011;6608;48.790;9.198;2023-07-13T05:48:23;91.33;;;58.80;;
13083;SDS011;6608;48.790;9.198;2023-07-13T05:50:50;90.50;;;58.23;;
13083;SDS011;6608;48.790;9.198;2023-07-13T05:53:16;92.50;;;58.50;;
13083;SDS011;6608;48.790;9.198;2023-07-13T05:55:45;90.27;;;58.87;;
13083;SDS011;6608;48.790;9.198;2023-07-13T05:58:12;89.47;;;58.43;;
13083;SDS011;6608;48.790;9.198;2023-07-13T06:00:39;99.23;;;60.87;;
13083;SDS011;6608;48.790;9.198;2023-07-13T06:03:05;95.83;;;59.67;;
13083;SDS011;6608;48.790;9.198;2023-07-13T06:05:32;97.53;;;61.07;;
13083;SDS011;6608;48.790;9.198;2023-07-13T06:07:59;93.07;;;59.30;;
13083;SDS011;6608;48.790;9.198;2023-07-13T06:10:25;91.07;;;58.93;;
13083;SDS011;6608;48.790;9.198;2023-07-13T06:12:53;97.63;;;58.87;;
13083;SDS011;6608;48.790;9.198;2023-07-13T06:15:20;92.67;;;59.10;;
13083;SDS011;6608;48.790;9.198;2023-07-13T06:17:46;94.90;;;59.77;;
13083;SDS011;6608;48.790;9.198;2023-07-13T06:20:13;92.20;;;59.77;;
13083;SDS011;6608;48.790;9.198;2023-07-13T06:22:39;92.63;;;58.37;;
13083;SDS011;6608;48.790;9.198;2023-07-13T06:25:06;96.93;;;59.77;;
13083;SDS011;6608;48.790;9.198;2023-07-13T06:27:33;92.73;;;59.73;;
13083;SDS011;6608;48.790;9.198;2023-07-13T06:30:01;90.10;;;58.60;;
13083;SDS011;6608;48.790;9.198;2023-07-13T06:32:28;89.37;;;58.20;;
13083;SDS011;6608;48.790;9.198;2023-07-13T06:34:54;92.13;;;58.80;;
13083;SDS011;6608;48.790;9.198;2023-07-13T06:37:21;91.40;;;58.90;;
13083;SDS011;6608;48.790;9.198;2023-07-13T06:39:47;92.87;;;60.40;;
13083;SDS011;6608;48.790;9.198;2023-07-13T06:42:13;95.40;;;60.37;;
13083;SDS011;6608;48.790;9.198;2023-07-13T06:44:40;93.90;;;60.50;;
13083;SDS011;6608;48.790;9.198;2023-07-13T06:47:08;95.00;;;59.20;;
13083;SDS011;6608;48.790;9.198;2023-07-13T06:49:34;96.33;;;60.37;;
13083;SDS011;6608;48.790;9.198;2023-07-13T06:52:01;97.33;;;59.13;;
13083;SDS011;6608;48.790;9.198;2023-07-13T06:54:27;90.40;;;59.23;;
13083;SDS011;6608;48.790;9.198;2023-07-13T06:56:56;92.00;;;58.83;;
13083;SDS011;6608;48.790;9.198;2023-07-13T06:59:24;93.00;;;59.40;;
13083;SDS011;6608;48.790;9.198;2023-07-13T07:01:50;93.07;;;60.87;;
13083;SDS011;6608;48.790;9.198;2023-07-13T07:04:18;90.83;;;59.03;;
13083;SDS011;6608;48.790;9.198;2023-07-13T07:06:45;90.57;;;58.73;;
13083;SDS011;6608;48.790;9.198;2023-07-13T07:09:12;92.07;;;59.17;;
13083;SDS011;6608;48.790;9.198;2023-07-13T07:11:41;96.03;;;59.77;;
13083;SDS011;6608;48.790;9.198;2023-07-13T07:14:08;97.00;;;63.07;;
13083;SDS011;6608;48.790;9.198;2023-07-13T07:16:34;89.93;;;59.27;;
13083;SDS011;6608;48.790;9.198;2023-07-13T07:19:01;105.10;;;65.70;;
13083;SDS011;6608;48.790;9.198;2023-07-13T07:21:29;92.50;;;59.23;;
13083;SDS011;6608;48.790;9.198;2023-07-13T07:23:56;92.63;;;60.17;;
13083;SDS011;6608;48.790;9.198;2023-07-13T07:26:24;92.97;;;59.83;;
13083;SDS011;6608;48.790;9.198;2023-07-13T07:28:51;89.47;;;58.30;;
13083;SDS011;6608;48.790;9.198;2023-07-13T07:31:19;92.07;;;59.97;;
13083;SDS011;6608;48.790;9.198;2023-07-13T07:33:45;92.87;;;59.90;;
13083;SDS011;6608;48.790;9.198;2023-07-13T07:36:11;97.63;;;59.50;;
13083;SDS011;6608;48.790;9.198;2023-07-13T07:38:39;94.33;;;59.77;;
13083;SDS011;6608;48.790;9.198;2023-07-13T07:41:06;92.43;;;59.80;;
13083;SDS011;6608;48.790;9.198;2023-07-13T07:43:32;94.37;;;61.17;;
13083;SDS011;6608;48.790;9.198;2023-07-13T07:45:59;93.27;;;59.80;;
13083;SDS011;6608;48.790;9.198;2023-07-13T07:48:26;95.07;;;59.77;;
13083;SDS011;6608;48.790;9.198;2023-07-13T07:50:52;92.27;;;60.20;;
13083;SDS011;6608;48.790;9.198;2023-07-13T07:53:19;91.67;;;60.53;;
13083;SDS011;6608;48.790;9.198;2023-07-13T07:55:47;91.97;;;60.67;;
13083;SDS011;6608;48.790;9.198;2023-07-13T07:58:14;94.83;;;61.00;;
13083;SDS011;6608;48.790;9.198;2023-07-13T08:00:40;92.23;;;60.83;;
13083;SDS011;6608;48.790;9.198;2023-07-13T08:03:07;90.20;;;59.97;;
13083;SDS011;6608;48.790;9.198;2023-07-13T08:05:34;94.60;;;60.97;;
13083;SDS011;6608;48.790;9.198;2023-07-13T08:08:01;94.33;;;62.20;;
13083;SDS011;6608;48.790;9.198;2023-07-13T08:10:29;95.10;;;63.20;;
13083;SDS011;6608;48.790;9.198;2023-07-13T08:12:57;94.93;;;62.13;;
13083;SDS011;6608;48.790;9.198;2023-07-13T08:15:23;94.80;;;61.27;;
13083;SDS011;6608;48.790;9.198;2023-07-13T08:17:50;92.23;;;60.97;;
13083;SDS011;6608;48.790;9.198;2023-07-13T08:20:17;94.70;;;61.77;;
13083;SDS011;6608;48.790;9.198;2023-07-13T08:22:43;92.87;;;61.37;;
13083;SDS011;6608;48.790;9.198;2023-07-13T08:25:10;92.87;;;61.27;;
13083;SDS011;6608;48.790;9.198;2023-07-13T08:27:36;94.77;;;61.90;;
13083;SDS011;6608;48.790;9.198;2023-07-13T08:30:05;96.13;;;61.33;;
13083;SDS011;6608;48.790;9.198;2023-07-13T08:32:35;94.40;;;61.33;;
13083;SDS011;6608;48.790;9.198;2023-07-13T08:35:02;93.97;;;61.83;;
13083;SDS011;6608;48.790;9.198;2023-07-13T08:37:29;96.35;;;62.92;;
13083;SDS011;6608;48.790;9.198;2023-07-13T08:39:55;91.60;;;61.53;;
13083;SDS011;6608;48.790;9.198;2023-07-13T08:42:28;92.03;;;61.80;;
13083;SDS011;6608;48.790;9.198;2023-07-13T08:45:06;92.13;;;61.50;;
13083;SDS011;6608;48.790;9.198;2023-07-13T08:47:35;92.05;;;61.67;;
13083;SDS011;6608;48.790;9.198;2023-07-13T08:50:03;92.97;;;62.42;;
13083;SDS011;6608;48.790;9.198;2023-07-13T08:52:33;95.50;;;62.88;;
13083;SDS011;6608;48.790;9.198;2023-07-13T08:55:17;90.60;;;61.60;;
13083;SDS011;6608;48.790;9.198;2023-07-13T08:57:46;93.32;;;62.65;;
13083;SDS011;6608;48.790;9.198;2023-07-13T09:00:18;92.68;;;63.20;;
13083;SDS011;6608;48.790;9.198;2023-07-13T09:02:46;93.45;;;62.78;;
13083;SDS011;6608;48.790;9.198;2023-07-13T09:05:13;91.72;;;64.05;;
13083;SDS011;6608;48.790;9.198;2023-07-13T09:07:45;92.60;;;63.17;;
13083;SDS011;6608;48.790;9.198;2023-07-13T09:10:15;90.35;;;63.50;;
13083;SDS011;6608;48.790;9.198;2023-07-13T09:12:49;94.05;;;63.45;;
13083;SDS011;6608;48.790;9.198;2023-07-13T09:15:22;90.40;;;63.63;;
13083;SDS011;6608;48.790;9.198;2023-07-13T09:17:50;94.80;;;64.43;;
13083;SDS011;6608;48.790;9.198;2023-07-13T09:20:19;94.20;;;64.25;;
13083;SDS011;6608;48.790;9.198;2023-07-13T09:22:48;92.18;;;63.88;;
13083;SDS011;6608;48.790;9.198;2023-07-13T09:25:23;91.55;;;63.67;;
13083;SDS011;6608;48.790;9.198;2023-07-13T09:27:53;94.00;;;66.20;;
13083;SDS011;6608;48.790;9.198;2023-07-13T09:30:24;93.70;;;64.03;;
13083;SDS011;6608;48.790;9.198;2023-07-13T09:32:55;92.28;;;63.70;;
13083;SDS011;6608;48.790;9.198;2023-07-13T09:35:29;91.40;;;63.67;;
13083;SDS011;6608;48.790;9.198;2023-07-13T09:37:59;94.78;;;64.57;;
13083;SDS011;6608;48.790;9.198;2023-07-13T09:40:28;106.03;;;71.68;;
13083;SDS011;6608;48.790;9.198;2023-07-13T09:42:56;92.93;;;63.40;;
13083;SDS011;6608;48.790;9.198;2023-07-13T09:45:29;93.60;;;63.33;;
13083;SDS011;6608;48.790;9.198;2023-07-13T09:47:59;91.78;;;62.38;;
13083;SDS011;6608;48.790;9.198;2023-07-13T09:50:25;91.65;;;62.70;;
13083;SDS011;6608;48.790;9.198;2023-07-13T09:52:54;92.22;;;62.78;;
13083;SDS011;6608;48.790;9.198;2023-07-13T09:55:24;91.90;;;62.83;;
13083;SDS011;6608;48.790;9.198;2023-07-13T09:57:51;91.32;;;62.95;;
13083;SDS011;6608;48.790;9.198;2023-07-13T10:00:22;93.32;;;63.42;;
13083;SDS011;6608;48.790;9.198;2023-07-13T10:02:58;91.70;;;63.13;;
13083;SDS011;6608;48.790;9.198;2023-07-13T10:05:25;90.15;;;63.13;;
13083;SDS011;6608;48.790;9.198;2023-07-13T10:07:52;92.55;;;63.10;;
13083;SDS011;6608;48.790;9.198;2023-07-13T10:10:22;93.57;;;63.17;;
13083;SDS011;6608;48.790;9.198;2023-07-13T10:12:49;90.22;;;63.53;;
13083;SDS011;6608;48.790;9.198;2023-07-13T10:15:17;93.03;;;64.97;;
13083;SDS011;6608;48.790;9.198;2023-07-13T10:17:44;92.53;;;63.22;;
13083;SDS011;6608;48.790;9.198;2023-07-13T10:20:12;91.85;;;63.83;;
13083;SDS011;6608;48.790;9.198;2023-07-13T10:25:32;97.80;;;64.38;;
13083;SDS011;6608;48.790;9.198;2023-07-13T10:28:01;92.57;;;64.22;;
13083;SDS011;6608;48.790;9.198;2023-07-13T10:30:34;92.35;;;63.28;;
13083;SDS011;6608;48.790;9.198;2023-07-13T10:33:01;90.70;;;63.55;;
13083;SDS011;6608;48.790;9.198;2023-07-13T10:35:30;91.40;;;63.65;;
13083;SDS011;6608;48.790;9.198;2023-07-13T10:37:59;90.38;;;63.88;;
13083;SDS011;6608;48.790;9.198;2023-07-13T10:40:31;96.65;;;64.28;;
13083;SDS011;6608;48.790;9.198;2023-07-13T10:43:00;91.55;;;63.38;;
13083;SDS011;6608;48.790;9.198;2023-07-13T10:45:29;90.97;;;64.25;;
13083;SDS011;6608;48.790;9.198;2023-07-13T10:47:56;92.00;;;64.22;;
13083;SDS011;6608;48.790;9.198;2023-07-13T10:50:24;97.28;;;63.75;;
13083;SDS011;6608;48.790;9.198;2023-07-13T10:52:56;94.35;;;64.13;;
13083;SDS011;6608;48.790;9.198;2023-07-13T10:55:30;93.15;;;63.88;;
13083;SDS011;6608;48.790;9.198;2023-07-13T10:57:59;91.75;;;63.38;;
13083;SDS011;6608;48.790;9.198;2023-07-13T11:00:26;93.00;;;63.15;;
13083;SDS011;6608;48.790;9.198;2023-07-13T11:02:56;93.85;;;63.63;;
13083;SDS011;6608;48.790;9.198;2023-07-13T11:05:26;93.28;;;64.68;;
13083;SDS011;6608;48.790;9.198;2023-07-13T11:07:56;90.53;;;63.15;;
13083;SDS011;6608;48.790;9.198;2023-07-13T11:10:46;90.93;;;63.28;;
13083;SDS011;6608;48.790;9.198;2023-07-13T11:15:54;91.45;;;63.05;;
13083;SDS011;6608;48.790;9.198;2023-07-13T11:18:22;91.05;;;63.55;;
13083;SDS011;6608;48.790;9.198;2023-07-13T11:20:50;97.15;;;64.22;;
13083;SDS011;6608;48.790;9.198;2023-07-13T11:23:20;103.47;;;74.22;;
13083;SDS011;6608;48.790;9.198;2023-07-13T11:25:47;92.25;;;63.75;;
13083;SDS011;6608;48.790;9.198;2023-07-13T11:28:16;94.55;;;63.83;;
13083;SDS011;6608;48.790;9.198;2023-07-13T11:30:43;90.65;;;63.33;;
13083;SDS011;6608;48.790;9.198;2023-07-13T11:33:16;91.30;;;63.20;;
13083;SDS011;6608;48.790;9.198;2023-07-13T11:35:51;89.45;;;63.75;;
13083;SDS011;6608;48.790;9.198;2023-07-13T11:38:21;92.15;;;63.53;;
13083;SDS011;6608;48.790;9.198;2023-07-13T11:40:48;91.18;;;63.83;;
13083;SDS011;6608;48.790;9.198;2023-07-13T11:43:17;90.90;;;63.83;;
13083;SDS011;6608;48.790;9.198;2023-07-13T11:45:44;91.90;;;63.55;;
13083;SDS011;6608;48.790;9.198;2023-07-13T11:48:18;93.05;;;63.65;;
13083;SDS011;6608;48.790;9.198;2023-07-13T11:50:49;93.10;;;63.60;;
13083;SDS011;6608;48.790;9.198;2023-07-13T11:53:16;91.80;;;63.85;;
13083;SDS011;6608;48.790;9.198;2023-07-13T11:55:44;92.90;;;63.53;;
13083;SDS011;6608;48.790;9.198;2023-07-13T11:58:11;90.65;;;63.17;;
13083;SDS011;6608;48.790;9.198;2023-07-13T12:00:38;93.65;;;63.13;;
13083;SDS011;6608;48.790;9.198;2023-07-13T12:03:14;89.97;;;62.80;;
13083;SDS011;6608;48.790;9.198;2023-07-13T12:06:03;92.82;;;62.90;;
13083;SDS011;6608;48.790;9.198;2023-07-13T12:08:45;94.75;;;63.40;;
13083;SDS011;6608;48.790;9.198;2023-07-13T12:16:54;93.28;;;64.00;;
13083;SDS011;6608;48.790;9.198;2023-07-13T12:19:38;91.18;;;63.22;;
13083;SDS011;6608;48.790;9.198;2023-07-13T12:22:21;91.22;;;63.45;;
13083;SDS011;6608;48.790;9.198;2023-07-13T12:24:53;91.03;;;62.67;;
13083;SDS011;6608;48.790;9.198;2023-07-13T12:27:29;90.97;;;62.65;;
13083;SDS011;6608;48.790;9.198;2023-07-13T12:30:25;93.40;;;63.08;;
13083;SDS011;6608;48.790;9.198;2023-07-13T12:33:01;91.82;;;62.30;;
13083;SDS011;6608;48.790;9.198;2023-07-13T12:35:28;97.82;;;63.03;;
13083;SDS011;6608;48.790;9.198;2023-07-13T12:38:45;92.78;;;62.38;;
13083;SDS011;6608;48.790;9.198;2023-07-13T12:41:02;92.88;;;62.72;;
13083;SDS011;6608;48.790;9.198;2023-07-13T12:43:38;97.50;;;63.28;;
13083;SDS011;6608;48.790;9.198;2023-07-13T12:46:14;92.50;;;63.03;;
13083;SDS011;6608;48.790;9.198;2023-07-13T12:48:48;94.78;;;64.68;;
13083;SDS011;6608;48.790;9.198;2023-07-13T12:51:17;92.90;;;62.60;;
13083;SDS011;6608;48.790;9.198;2023-07-13T12:53:51;91.32;;;62.65;;
13083;SDS011;6608;48.790;9.198;2023-07-13T12:56:26;93.28;;;62.45;;
13083;SDS011;6608;48.790;9.198;2023-07-13T12:59:02;99.22;;;63.67;;
13083;SDS011;6608;48.790;9.198;2023-07-13T13:04:36;94.13;;;62.33;;
13083;SDS011;6608;48.790;9.198;2023-07-13T13:07:56;93.05;;;62.35;;
13083;SDS011;6608;48.790;9.198;2023-07-13T13:10:49;93.88;;;62.30;;
13083;SDS011;6608;48.790;9.198;2023-07-13T13:16:43;94.88;;;62.50;;
13083;SDS011;6608;48.790;9.198;2023-07-13T13:19:14;93.55;;;62.97;;
13083;SDS011;6608;48.790;9.198;2023-07-13T13:22:00;91.40;;;62.88;;
13083;SDS011;6608;48.790;9.198;2023-07-13T13:24:52;93.00;;;63.35;;
13083;SDS011;6608;48.790;9.198;2023-07-13T13:30:45;91.70;;;63.33;;
13083;SDS011;6608;48.790;9.198;2023-07-13T13:33:27;94.80;;;62.58;;
13083;SDS011;6608;48.790;9.198;2023-07-13T13:36:01;91.53;;;62.40;;
13083;SDS011;6608;48.790;9.198;2023-07-13T13:41:54;96.18;;;63.55;;
13083;SDS011;6608;48.790;9.198;2023-07-13T13:44:42;91.07;;;62.42;;
13083;SDS011;6608;48.790;9.198;2023-07-13T13:47:28;95.68;;;63.55;;
13083;SDS011;6608;48.790;9.198;2023-07-13T13:56:13;92.90;;;62.80;;
13083;SDS011;6608;48.790;9.198;2023-07-13T14:01:42;93.07;;;62.47;;
13083;SDS011;6608;48.790;9.198;2023-07-13T14:07:27;95.53;;;63.85;;
13083;SDS011;6608;48.790;9.198;2023-07-13T14:10:08;95.18;;;64.10;;
13083;SDS011;6608;48.790;9.198;2023-07-13T14:12:59;92.53;;;61.55;;
13083;SDS011;6608;48.790;9.198;2023-07-13T14:15:52;93.43;;;62.05;;
13083;SDS011;6608;48.790;9.198;2023-07-13T14:19:23;90.53;;;62.08;;
13083;SDS011;6608;48.790;9.198;2023-07-13T14:22:15;95.65;;;63.65;;
13083;SDS011;6608;48.790;9.198;2023-07-13T14:34:03;92.78;;;61.95;;
13083;SDS011;6608;48.790;9.198;2023-07-13T14:42:03;95.88;;;63.63;;
13083;SDS011;6608;48.790;9.198;2023-07-13T14:45:59;95.78;;;63.75;;
13083;SDS011;6608;48.790;9.198;2023-07-13T16:16:30;94.03;;;64.33;;
13083;SDS011;6608;48.790;9.198;2023-07-13T16:18:57;92.90;;;62.10;;
13083;SDS011;6608;48.790;9.198;2023-07-13T16:21:24;94.10;;;63.83;;
13083;SDS011;6608;48.790;9.198;2023-07-13T16:23:51;92.53;;;62.73;;
13083;SDS011;6608;48.790;9.198;2023-07-13T16:26:28;93.40;;;63.13;;
13083;SDS011;6608;48.790;9.198;2023-07-13T16:28:58;95.17;;;62.70;;
13083;SDS011;6608;48.790;9.198;2023-07-13T16:34:29;99.10;;;62.37;;
13083;SDS011;6608;48.790;9.198;2023-07-13T16:36:56;97.50;;;63.23;;
13083;SDS011;6608;48.790;9.198;2023-07-13T16:39:23;93.20;;;62.40;;
13083;SDS011;6608;48.790;9.198;2023-07-13T16:41:51;93.83;;;62.67;;
13083;SDS011;6608;48.790;9.198;2023-07-13T16:44:18;93.00;;;61.10;;
13083;SDS011;6608;48.790;9.198;2023-07-13T16:46:46;93.10;;;61.83;;
13083;SDS011;6608;48.790;9.198;2023-07-13T16:49:19;91.68;;;61.63;;
13083;SDS011;6608;48.790;9.198;2023-07-13T16:51:48;91.20;;;60.67;;
13083;SDS011;6608;48.790;9.198;2023-07-13T16:54:17;91.90;;;61.37;;
13083;SDS011;6608;48.790;9.198;2023-07-13T16:56:44;93.60;;;62.50;;
13083;SDS011;6608;48.790;9.198;2023-07-13T16:59:12;94.23;;;62.10;;
13083;SDS011;6608;48.790;9.198;2023-07-13T17:01:40;91.53;;;61.20;;
13083;SDS011;6608;48.790;9.198;2023-07-13T17:04:08;93.13;;;61.30;;
13083;SDS011;6608;48.790;9.198;2023-07-13T17:06:35;93.30;;;61.50;;
13083;SDS011;6608;48.790;9.198;2023-07-13T17:09:04;92.30;;;61.93;;
13083;SDS011;6608;48.790;9.198;2023-07-13T17:11:33;95.60;;;64.20;;